sensor_id;sensor_type;location;lat;lon;timestamp;P1;durP1;ratioP1;P2;durP2;ratioP2
42200;SDS011;27869;51.442;7.540;2022-09-19T00:01:05;9.13;;;1.55;;
42200;SDS011;27869;51.442;7.540;2022-09-19T00:03:35;11.45;;;1.83;;
42200;SDS011;27869;51.442;7.540;2022-09-19T00:06:02;11.55;;;1.50;;
42200;SDS011;27869;51.442;7.540;2022-09-19T00:08:30;10.32;;;1.67;;
42200;SDS011;27869;51.442;7.540;2022-09-19T00:10:59;11.80;;;1.60;;
42200;SDS011;27869;51.442;7.540;2022-09-19T00:13:28;10.13;;;1.85;;
42200;SDS011;27869;51.442;7.540;2022-09-19T00:15:56;8.35;;;1.50;;
42200;SDS011;27869;51.442;7.540;2022-09-19T00:18:23;10.45;;;1.52;;
42200;SDS011;27869;51.442;7.540;2022-09-19T00:20:51;15.85;;;1.92;;
42200;SDS011;27869;51.442;7.540;2022-09-19T00:23:18;9.60;;;1.70;;
42200;SDS011;27869;51.442;7.540;2022-09-19T00:26:10;12.98;;;1.77;;
42200;SDS011;27869;51.442;7.540;2022-09-19T00:28:38;12.52;;;1.80;;
42200;SDS011;27869;51.442;7.540;2022-09-19T00:31:05;10.70;;;1.70;;
42200;SDS011;27869;51.442;7.540;2022-09-19T00:33:39;11.80;;;1.60;;
42200;SDS011;27869;51.442;7.540;2022-09-19T00:36:06;15.63;;;1.88;;
42200;SDS011;27869;51.442;7.540;2022-09-19T00:38:34;14.00;;;1.67;;
42200;SDS011;27869;51.442;7.540;2022-09-19T00:41:00;11.02;;;1.55;;
42200;SDS011;27869;51.442;7.540;2022-09-19T00:46:12;19.20;;;1.77;;
42200;SDS011;27869;51.442;7.540;2022-09-19T00:48:40;16.42;;;2.75;;
42200;SDS011;27869;51.442;7.540;2022-09-19T00:51:08;12.60;;;1.73;;
42200;SDS011;27869;51.442;7.540;2022-09-19T00:53:37;14.07;;;1.70;;
42200;SDS011;27869;51.442;7.540;2022-09-19T00:56:05;15.63;;;2.35;;
42200;SDS011;27869;51.442;7.540;2022-09-19T00:58:33;10.60;;;1.48;;
42200;SDS011;27869;51.442;7.540;2022-09-19T01:01:02;12.88;;;1.67;;
42200;SDS011;27869;51.442;7.540;2022-09-19T01:03:30;17.35;;;2.00;;
42200;SDS011;27869;51.442;7.540;2022-09-19T01:05:59;12.05;;;1.80;;
42200;SDS011;27869;51.442;7.540;2022-09-19T01:11:30;9.23;;;1.38;;
42200;SDS011;27869;51.442;7.540;2022-09-19T01:14:16;12.43;;;2.03;;
42200;SDS011;27869;51.442;7.540;2022-09-19T01:16:54;14.02;;;1.58;;
42200;SDS011;27869;51.442;7.540;2022-09-19T01:22:29;15.32;;;1.75;;
42200;SDS011;27869;51.442;7.540;2022-09-19T01:25:07;12.60;;;1.95;;
42200;SDS011;27869;51.442;7.540;2022-09-19T01:30:44;10.02;;;1.20;;
42200;SDS011;27869;51.442;7.540;2022-09-19T01:33:34;14.10;;;1.80;;
42200;SDS011;27869;51.442;7.540;2022-09-19T01:36:03;15.10;;;1.70;;
42200;SDS011;27869;51.442;7.540;2022-09-19T01:41:04;12.45;;;1.58;;
42200;SDS011;27869;51.442;7.540;2022-09-19T01:43:34;11.10;;;2.17;;
42200;SDS011;27869;51.442;7.540;2022-09-19T01:46:05;16.33;;;1.90;;
42200;SDS011;27869;51.442;7.540;2022-09-19T01:48:37;16.98;;;1.60;;
42200;SDS011;27869;51.442;7.540;2022-09-19T01:51:18;11.35;;;1.38;;
42200;SDS011;27869;51.442;7.540;2022-09-19T01:53:56;15.57;;;1.67;;
42200;SDS011;27869;51.442;7.540;2022-09-19T01:56:35;17.02;;;1.75;;
42200;SDS011;27869;51.442;7.540;2022-09-19T01:59:17;9.40;;;1.67;;
42200;SDS011;27869;51.442;7.540;2022-09-19T02:01:57;12.43;;;1.60;;
42200;SDS011;27869;51.442;7.540;2022-09-19T02:04:31;14.75;;;1.55;;
42200;SDS011;27869;51.442;7.540;2022-09-19T02:07:08;11.73;;;1.55;;
42200;SDS011;27869;51.442;7.540;2022-09-19T02:09:45;15.35;;;2.20;;
42200;SDS011;27869;51.442;7.540;2022-09-19T02:12:18;12.02;;;1.42;;
42200;SDS011;27869;51.442;7.540;2022-09-19T02:14:48;15.50;;;1.90;;
42200;SDS011;27869;51.442;7.540;2022-09-19T02:17:22;11.73;;;1.45;;
42200;SDS011;27869;51.442;7.540;2022-09-19T02:19:59;17.55;;;2.10;;
42200;SDS011;27869;51.442;7.540;2022-09-19T02:22:32;17.20;;;1.75;;
42200;SDS011;27869;51.442;7.540;2022-09-19T02:25:05;13.25;;;1.83;;
42200;SDS011;27869;51.442;7.540;2022-09-19T02:27:36;13.07;;;1.73;;
42200;SDS011;27869;51.442;7.540;2022-09-19T02:30:07;15.50;;;1.80;;
42200;SDS011;27869;51.442;7.540;2022-09-19T02:32:36;12.70;;;1.50;;
42200;SDS011;27869;51.442;7.540;2022-09-19T02:35:12;13.77;;;1.90;;
42200;SDS011;27869;51.442;7.540;2022-09-19T02:37:41;9.05;;;1.45;;
42200;SDS011;27869;51.442;7.540;2022-09-19T02:40:13;11.52;;;1.50;;
42200;SDS011;27869;51.442;7.540;2022-09-19T02:42:46;11.57;;;1.65;;
42200;SDS011;27869;51.442;7.540;2022-09-19T02:45:18;18.23;;;2.10;;
42200;SDS011;27869;51.442;7.540;2022-09-19T02:47:53;15.88;;;1.90;;
42200;SDS011;27869;51.442;7.540;2022-09-19T02:50:28;14.50;;;1.88;;
42200;SDS011;27869;51.442;7.540;2022-09-19T02:53:02;12.35;;;1.55;;
42200;SDS011;27869;51.442;7.540;2022-09-19T02:55:33;13.55;;;1.52;;
42200;SDS011;27869;51.442;7.540;2022-09-19T02:58:07;11.40;;;1.58;;
42200;SDS011;27869;51.442;7.540;2022-09-19T03:00:36;14.98;;;1.67;;
42200;SDS011;27869;51.442;7.540;2022-09-19T03:03:07;13.02;;;1.60;;
42200;SDS011;27869;51.442;7.540;2022-09-19T03:05:52;14.13;;;1.58;;
42200;SDS011;27869;51.442;7.540;2022-09-19T03:08:21;14.77;;;2.53;;
42200;SDS011;27869;51.442;7.540;2022-09-19T03:10:50;12.95;;;1.92;;
42200;SDS011;27869;51.442;7.540;2022-09-19T03:13:21;16.08;;;1.60;;
42200;SDS011;27869;51.442;7.540;2022-09-19T03:15:50;13.15;;;1.98;;
42200;SDS011;27869;51.442;7.540;2022-09-19T03:18:23;15.00;;;1.85;;
42200;SDS011;27869;51.442;7.540;2022-09-19T03:20:52;10.57;;;1.50;;
42200;SDS011;27869;51.442;7.540;2022-09-19T03:23:21;13.23;;;1.75;;
42200;SDS011;27869;51.442;7.540;2022-09-19T03:25:53;12.63;;;1.48;;
42200;SDS011;27869;51.442;7.540;2022-09-19T03:28:20;16.08;;;1.90;;
42200;SDS011;27869;51.442;7.540;2022-09-19T03:30:48;13.13;;;1.60;;
42200;SDS011;27869;51.442;7.540;2022-09-19T03:33:15;15.57;;;2.45;;
42200;SDS011;27869;51.442;7.540;2022-09-19T03:35:43;9.80;;;1.42;;
42200;SDS011;27869;51.442;7.540;2022-09-19T03:38:16;16.58;;;2.17;;
42200;SDS011;27869;51.442;7.540;2022-09-19T03:40:43;13.52;;;1.65;;
42200;SDS011;27869;51.442;7.540;2022-09-19T03:43:09;16.00;;;1.60;;
42200;SDS011;27869;51.442;7.540;2022-09-19T03:45:36;16.13;;;2.13;;
42200;SDS011;27869;51.442;7.540;2022-09-19T03:48:03;18.75;;;2.15;;
42200;SDS011;27869;51.442;7.540;2022-09-19T03:50:30;13.30;;;1.63;;
42200;SDS011;27869;51.442;7.540;2022-09-19T03:52:58;13.65;;;1.92;;
42200;SDS011;27869;51.442;7.540;2022-09-19T03:55:25;17.23;;;1.90;;
42200;SDS011;27869;51.442;7.540;2022-09-19T03:57:52;12.57;;;1.75;;
42200;SDS011;27869;51.442;7.540;2022-09-19T04:00:19;11.18;;;1.35;;
42200;SDS011;27869;51.442;7.540;2022-09-19T04:02:47;17.27;;;2.38;;
42200;SDS011;27869;51.442;7.540;2022-09-19T04:05:14;21.08;;;2.25;;
42200;SDS011;27869;51.442;7.540;2022-09-19T04:07:41;15.75;;;1.98;;
42200;SDS011;27869;51.442;7.540;2022-09-19T04:10:09;16.60;;;2.00;;
42200;SDS011;27869;51.442;7.540;2022-09-19T04:12:36;15.38;;;1.80;;
42200;SDS011;27869;51.442;7.540;2022-09-19T04:15:03;13.90;;;2.30;;
42200;SDS011;27869;51.442;7.540;2022-09-19T04:17:32;15.38;;;1.55;;
42200;SDS011;27869;51.442;7.540;2022-09-19T04:19:59;13.77;;;1.80;;
42200;SDS011;27869;51.442;7.540;2022-09-19T04:22:26;12.20;;;1.63;;
42200;SDS011;27869;51.442;7.540;2022-09-19T04:24:53;10.40;;;1.63;;
42200;SDS011;27869;51.442;7.540;2022-09-19T04:27:21;14.55;;;1.65;;
42200;SDS011;27869;51.442;7.540;2022-09-19T04:29:48;13.85;;;1.90;;
42200;SDS011;27869;51.442;7.540;2022-09-19T04:32:15;15.45;;;1.75;;
42200;SDS011;27869;51.442;7.540;2022-09-19T04:34:42;15.82;;;2.10;;
42200;SDS011;27869;51.442;7.540;2022-09-19T04:37:09;14.02;;;1.83;;
42200;SDS011;27869;51.442;7.540;2022-09-19T04:39:40;11.98;;;1.67;;
42200;SDS011;27869;51.442;7.540;2022-09-19T04:42:07;12.90;;;1.90;;
42200;SDS011;27869;51.442;7.540;2022-09-19T04:44:35;11.88;;;1.60;;
42200;SDS011;27869;51.442;7.540;2022-09-19T04:47:03;18.27;;;2.00;;
42200;SDS011;27869;51.442;7.540;2022-09-19T04:49:31;15.15;;;1.90;;
42200;SDS011;27869;51.442;7.540;2022-09-19T04:52:01;16.23;;;2.22;;
42200;SDS011;27869;51.442;7.540;2022-09-19T04:54:28;14.05;;;1.80;;
42200;SDS011;27869;51.442;7.540;2022-09-19T04:57:02;14.10;;;1.73;;
42200;SDS011;27869;51.442;7.540;2022-09-19T04:59:30;14.45;;;2.20;;
42200;SDS011;27869;51.442;7.540;2022-09-19T05:01:59;12.27;;;1.83;;
42200;SDS011;27869;51.442;7.540;2022-09-19T05:04:27;19.10;;;2.13;;
42200;SDS011;27869;51.442;7.540;2022-09-19T05:06:54;15.07;;;1.90;;
42200;SDS011;27869;51.442;7.540;2022-09-19T05:09:21;14.15;;;2.20;;
42200;SDS011;27869;51.442;7.540;2022-09-19T05:11:49;10.80;;;1.85;;
42200;SDS011;27869;51.442;7.540;2022-09-19T05:14:18;12.40;;;1.85;;
42200;SDS011;27869;51.442;7.540;2022-09-19T05:16:47;16.15;;;1.95;;
42200;SDS011;27869;51.442;7.540;2022-09-19T05:19:16;17.13;;;1.98;;
42200;SDS011;27869;51.442;7.540;2022-09-19T05:21:47;15.07;;;2.45;;
42200;SDS011;27869;51.442;7.540;2022-09-19T05:24:14;15.00;;;2.03;;
42200;SDS011;27869;51.442;7.540;2022-09-19T05:26:41;14.77;;;2.20;;
42200;SDS011;27869;51.442;7.540;2022-09-19T05:29:08;15.38;;;1.50;;
42200;SDS011;27869;51.442;7.540;2022-09-19T05:31:37;13.13;;;1.60;;
42200;SDS011;27869;51.442;7.540;2022-09-19T05:34:04;10.80;;;1.70;;
42200;SDS011;27869;51.442;7.540;2022-09-19T05:36:32;13.07;;;1.95;;
42200;SDS011;27869;51.442;7.540;2022-09-19T05:38:59;14.50;;;2.08;;
42200;SDS011;27869;51.442;7.540;2022-09-19T05:41:26;15.57;;;3.58;;
42200;SDS011;27869;51.442;7.540;2022-09-19T05:43:53;14.63;;;2.17;;
42200;SDS011;27869;51.442;7.540;2022-09-19T05:46:20;13.88;;;2.30;;
42200;SDS011;27869;51.442;7.540;2022-09-19T05:48:48;17.05;;;2.10;;
42200;SDS011;27869;51.442;7.540;2022-09-19T05:51:15;16.38;;;1.60;;
42200;SDS011;27869;51.442;7.540;2022-09-19T05:53:43;16.30;;;2.35;;
42200;SDS011;27869;51.442;7.540;2022-09-19T05:56:18;18.45;;;2.65;;
42200;SDS011;27869;51.442;7.540;2022-09-19T05:58:45;14.60;;;2.13;;
42200;SDS011;27869;51.442;7.540;2022-09-19T06:01:13;14.13;;;2.20;;
42200;SDS011;27869;51.442;7.540;2022-09-19T06:03:40;13.10;;;1.73;;
42200;SDS011;27869;51.442;7.540;2022-09-19T06:06:07;12.68;;;1.98;;
42200;SDS011;27869;51.442;7.540;2022-09-19T06:11:05;11.75;;;1.90;;
42200;SDS011;27869;51.442;7.540;2022-09-19T06:13:32;17.05;;;1.92;;
42200;SDS011;27869;51.442;7.540;2022-09-19T06:16:16;15.75;;;1.92;;
42200;SDS011;27869;51.442;7.540;2022-09-19T06:18:44;12.20;;;1.52;;
42200;SDS011;27869;51.442;7.540;2022-09-19T06:21:11;16.20;;;2.85;;
42200;SDS011;27869;51.442;7.540;2022-09-19T06:23:38;18.20;;;2.08;;
42200;SDS011;27869;51.442;7.540;2022-09-19T06:26:06;14.85;;;1.85;;
42200;SDS011;27869;51.442;7.540;2022-09-19T06:28:34;14.60;;;1.77;;
42200;SDS011;27869;51.442;7.540;2022-09-19T06:31:01;16.83;;;2.10;;
42200;SDS011;27869;51.442;7.540;2022-09-19T06:33:28;12.10;;;1.73;;
42200;SDS011;27869;51.442;7.540;2022-09-19T06:35:56;16.45;;;1.73;;
42200;SDS011;27869;51.442;7.540;2022-09-19T06:38:24;14.07;;;2.13;;
42200;SDS011;27869;51.442;7.540;2022-09-19T06:40:51;8.80;;;1.60;;
42200;SDS011;27869;51.442;7.540;2022-09-19T06:43:19;11.85;;;1.90;;
42200;SDS011;27869;51.442;7.540;2022-09-19T06:45:46;15.10;;;2.35;;
42200;SDS011;27869;51.442;7.540;2022-09-19T06:48:13;15.45;;;1.80;;
42200;SDS011;27869;51.442;7.540;2022-09-19T06:50:43;14.73;;;1.90;;
42200;SDS011;27869;51.442;7.540;2022-09-19T06:53:11;14.30;;;1.60;;
42200;SDS011;27869;51.442;7.540;2022-09-19T06:55:38;12.65;;;2.15;;
42200;SDS011;27869;51.442;7.540;2022-09-19T06:58:06;13.98;;;1.88;;
42200;SDS011;27869;51.442;7.540;2022-09-19T07:00:34;14.90;;;1.88;;
42200;SDS011;27869;51.442;7.540;2022-09-19T07:03:04;14.35;;;1.85;;
42200;SDS011;27869;51.442;7.540;2022-09-19T07:05:32;15.27;;;2.08;;
42200;SDS011;27869;51.442;7.540;2022-09-19T07:08:00;14.20;;;1.60;;
42200;SDS011;27869;51.442;7.540;2022-09-19T07:10:27;13.00;;;1.52;;
42200;SDS011;27869;51.442;7.540;2022-09-19T07:12:54;11.82;;;1.80;;
42200;SDS011;27869;51.442;7.540;2022-09-19T07:15:26;15.18;;;1.75;;
42200;SDS011;27869;51.442;7.540;2022-09-19T07:17:55;14.40;;;1.80;;
42200;SDS011;27869;51.442;7.540;2022-09-19T07:20:22;9.55;;;1.60;;
42200;SDS011;27869;51.442;7.540;2022-09-19T07:22:57;13.90;;;1.52;;
42200;SDS011;27869;51.442;7.540;2022-09-19T07:25:25;14.55;;;2.03;;
42200;SDS011;27869;51.442;7.540;2022-09-19T07:27:54;16.80;;;1.73;;
42200;SDS011;27869;51.442;7.540;2022-09-19T07:30:21;12.18;;;1.75;;
42200;SDS011;27869;51.442;7.540;2022-09-19T07:32:48;16.20;;;2.10;;
42200;SDS011;27869;51.442;7.540;2022-09-19T07:35:17;11.48;;;1.60;;
42200;SDS011;27869;51.442;7.540;2022-09-19T07:37:47;16.25;;;1.85;;
42200;SDS011;27869;51.442;7.540;2022-09-19T07:40:15;13.25;;;2.00;;
42200;SDS011;27869;51.442;7.540;2022-09-19T07:42:42;17.90;;;2.15;;
42200;SDS011;27869;51.442;7.540;2022-09-19T07:45:09;12.55;;;1.48;;
42200;SDS011;27869;51.442;7.540;2022-09-19T07:47:40;13.38;;;2.00;;
42200;SDS011;27869;51.442;7.540;2022-09-19T07:50:08;15.52;;;2.17;;
42200;SDS011;27869;51.442;7.540;2022-09-19T07:52:41;13.18;;;1.90;;
42200;SDS011;27869;51.442;7.540;2022-09-19T07:55:08;14.35;;;1.90;;
42200;SDS011;27869;51.442;7.540;2022-09-19T07:57:36;12.45;;;1.92;;
42200;SDS011;27869;51.442;7.540;2022-09-19T08:00:03;14.65;;;1.90;;
42200;SDS011;27869;51.442;7.540;2022-09-19T08:02:32;11.05;;;1.52;;
42200;SDS011;27869;51.442;7.540;2022-09-19T08:04:59;17.98;;;2.03;;
42200;SDS011;27869;51.442;7.540;2022-09-19T08:07:26;14.43;;;1.90;;
42200;SDS011;27869;51.442;7.540;2022-09-19T08:09:54;13.20;;;2.08;;
42200;SDS011;27869;51.442;7.540;2022-09-19T08:12:21;12.25;;;2.00;;
42200;SDS011;27869;51.442;7.540;2022-09-19T08:14:48;13.90;;;1.58;;
42200;SDS011;27869;51.442;7.540;2022-09-19T08:17:15;15.07;;;1.83;;
42200;SDS011;27869;51.442;7.540;2022-09-19T08:19:42;14.77;;;2.03;;
42200;SDS011;27869;51.442;7.540;2022-09-19T08:22:09;13.13;;;1.90;;
42200;SDS011;27869;51.442;7.540;2022-09-19T08:24:36;13.55;;;2.13;;
42200;SDS011;27869;51.442;7.540;2022-09-19T08:27:04;15.85;;;1.75;;
42200;SDS011;27869;51.442;7.540;2022-09-19T08:29:31;18.27;;;2.60;;
42200;SDS011;27869;51.442;7.540;2022-09-19T08:31:58;11.75;;;1.48;;
42200;SDS011;27869;51.442;7.540;2022-09-19T08:34:27;14.60;;;1.45;;
42200;SDS011;27869;51.442;7.540;2022-09-19T08:36:54;12.95;;;1.60;;
42200;SDS011;27869;51.442;7.540;2022-09-19T08:39:24;13.43;;;1.75;;
42200;SDS011;27869;51.442;7.540;2022-09-19T08:41:55;14.50;;;2.10;;
42200;SDS011;27869;51.442;7.540;2022-09-19T08:44:37;11.20;;;1.70;;
42200;SDS011;27869;51.442;7.540;2022-09-19T08:47:13;14.70;;;1.65;;
42200;SDS011;27869;51.442;7.540;2022-09-19T08:49:44;13.52;;;1.58;;
42200;SDS011;27869;51.442;7.540;2022-09-19T08:52:17;11.70;;;1.52;;
42200;SDS011;27869;51.442;7.540;2022-09-19T08:54:55;10.27;;;1.58;;
42200;SDS011;27869;51.442;7.540;2022-09-19T08:57:24;15.02;;;1.80;;
42200;SDS011;27869;51.442;7.540;2022-09-19T08:59:56;10.35;;;1.73;;
42200;SDS011;27869;51.442;7.540;2022-09-19T09:02:30;13.38;;;1.75;;
42200;SDS011;27869;51.442;7.540;2022-09-19T09:05:06;11.38;;;1.50;;
42200;SDS011;27869;51.442;7.540;2022-09-19T09:07:39;14.18;;;1.60;;
42200;SDS011;27869;51.442;7.540;2022-09-19T09:10:18;11.32;;;1.33;;
42200;SDS011;27869;51.442;7.540;2022-09-19T09:12:56;10.93;;;1.70;;
42200;SDS011;27869;51.442;7.540;2022-09-19T09:15:45;15.88;;;1.60;;
42200;SDS011;27869;51.442;7.540;2022-09-19T09:21:15;12.80;;;1.67;;
42200;SDS011;27869;51.442;7.540;2022-09-19T09:23:51;13.32;;;1.90;;
42200;SDS011;27869;51.442;7.540;2022-09-19T09:26:24;14.82;;;2.80;;
42200;SDS011;27869;51.442;7.540;2022-09-19T09:28:55;12.07;;;1.58;;
42200;SDS011;27869;51.442;7.540;2022-09-19T09:31:29;13.82;;;2.20;;
42200;SDS011;27869;51.442;7.540;2022-09-19T09:34:01;15.10;;;2.05;;
42200;SDS011;27869;51.442;7.540;2022-09-19T09:36:34;20.05;;;1.70;;
42200;SDS011;27869;51.442;7.540;2022-09-19T09:39:05;14.15;;;1.42;;
42200;SDS011;27869;51.442;7.540;2022-09-19T09:41:41;10.85;;;1.23;;
42200;SDS011;27869;51.442;7.540;2022-09-19T09:44:27;12.13;;;1.50;;
42200;SDS011;27869;51.442;7.540;2022-09-19T09:47:21;11.85;;;1.60;;
42200;SDS011;27869;51.442;7.540;2022-09-19T09:49:59;12.30;;;1.30;;
42200;SDS011;27869;51.442;7.540;2022-09-19T09:52:40;7.97;;;1.13;;
42200;SDS011;27869;51.442;7.540;2022-09-19T09:55:27;7.30;;;1.10;;
42200;SDS011;27869;51.442;7.540;2022-09-19T09:58:22;11.60;;;1.50;;
42200;SDS011;27869;51.442;7.540;2022-09-19T10:00:56;12.18;;;1.25;;
42200;SDS011;27869;51.442;7.540;2022-09-19T10:03:58;11.32;;;1.48;;
42200;SDS011;27869;51.442;7.540;2022-09-19T10:06:32;9.40;;;1.08;;
42200;SDS011;27869;51.442;7.540;2022-09-19T10:09:06;11.48;;;1.30;;
42200;SDS011;27869;51.442;7.540;2022-09-19T10:11:38;8.80;;;1.20;;
42200;SDS011;27869;51.442;7.540;2022-09-19T10:14:07;10.50;;;1.33;;
42200;SDS011;27869;51.442;7.540;2022-09-19T10:16:43;4.65;;;0.85;;
42200;SDS011;27869;51.442;7.540;2022-09-19T10:19:18;8.63;;;1.48;;
42200;SDS011;27869;51.442;7.540;2022-09-19T10:21:53;10.68;;;1.60;;
42200;SDS011;27869;51.442;7.540;2022-09-19T10:27:09;16.25;;;1.73;;
42200;SDS011;27869;51.442;7.540;2022-09-19T10:29:41;6.90;;;1.17;;
42200;SDS011;27869;51.442;7.540;2022-09-19T10:32:18;8.35;;;1.00;;
42200;SDS011;27869;51.442;7.540;2022-09-19T10:34:50;10.63;;;1.20;;
42200;SDS011;27869;51.442;7.540;2022-09-19T10:37:18;10.27;;;1.10;;
42200;SDS011;27869;51.442;7.540;2022-09-19T10:39:48;11.00;;;1.40;;
42200;SDS011;27869;51.442;7.540;2022-09-19T10:42:19;13.90;;;1.70;;
42200;SDS011;27869;51.442;7.540;2022-09-19T10:45:04;13.25;;;1.38;;
42200;SDS011;27869;51.442;7.540;2022-09-19T10:47:44;7.25;;;1.13;;
42200;SDS011;27869;51.442;7.540;2022-09-19T10:50:16;10.88;;;1.20;;
42200;SDS011;27869;51.442;7.540;2022-09-19T10:52:44;15.65;;;1.63;;
42200;SDS011;27869;51.442;7.540;2022-09-19T10:57:43;8.45;;;1.27;;
42200;SDS011;27869;51.442;7.540;2022-09-19T11:00:22;7.25;;;1.60;;
42200;SDS011;27869;51.442;7.540;2022-09-19T11:02:57;9.07;;;1.20;;
42200;SDS011;27869;51.442;7.540;2022-09-19T11:05:29;7.20;;;1.05;;
42200;SDS011;27869;51.442;7.540;2022-09-19T11:07:57;10.13;;;1.20;;
42200;SDS011;27869;51.442;7.540;2022-09-19T11:10:29;11.20;;;1.10;;
42200;SDS011;27869;51.442;7.540;2022-09-19T11:13:05;12.73;;;1.80;;
42200;SDS011;27869;51.442;7.540;2022-09-19T11:15:35;9.15;;;1.02;;
42200;SDS011;27869;51.442;7.540;2022-09-19T11:18:21;7.65;;;1.15;;
42200;SDS011;27869;51.442;7.540;2022-09-19T11:21:00;9.77;;;1.15;;
42200;SDS011;27869;51.442;7.540;2022-09-19T11:26:57;10.60;;;1.33;;
42200;SDS011;27869;51.442;7.540;2022-09-19T11:29:44;9.30;;;1.20;;
42200;SDS011;27869;51.442;7.540;2022-09-19T11:32:26;11.25;;;1.60;;
42200;SDS011;27869;51.442;7.540;2022-09-19T11:37:38;11.07;;;1.50;;
42200;SDS011;27869;51.442;7.540;2022-09-19T11:40:21;10.90;;;1.20;;
42200;SDS011;27869;51.442;7.540;2022-09-19T11:42:57;7.68;;;1.30;;
42200;SDS011;27869;51.442;7.540;2022-09-19T11:45:35;6.97;;;1.02;;
42200;SDS011;27869;51.442;7.540;2022-09-19T11:48:19;10.82;;;1.20;;
42200;SDS011;27869;51.442;7.540;2022-09-19T11:51:12;9.55;;;1.05;;
42200;SDS011;27869;51.442;7.540;2022-09-19T11:53:51;8.20;;;1.20;;
42200;SDS011;27869;51.442;7.540;2022-09-19T11:56:41;9.38;;;1.40;;
42200;SDS011;27869;51.442;7.540;2022-09-19T11:59:20;6.65;;;1.08;;
42200;SDS011;27869;51.442;7.540;2022-09-19T12:01:58;10.57;;;1.25;;
42200;SDS011;27869;51.442;7.540;2022-09-19T12:04:35;10.95;;;1.40;;
42200;SDS011;27869;51.442;7.540;2022-09-19T12:07:17;10.13;;;1.10;;
42200;SDS011;27869;51.442;7.540;2022-09-19T12:09:58;8.63;;;1.38;;
42200;SDS011;27869;51.442;7.540;2022-09-19T12:12:32;8.73;;;1.00;;
42200;SDS011;27869;51.442;7.540;2022-09-19T12:15:05;9.13;;;1.40;;
42200;SDS011;27869;51.442;7.540;2022-09-19T12:17:44;10.30;;;1.17;;
42200;SDS011;27869;51.442;7.540;2022-09-19T12:20:20;8.60;;;1.02;;
42200;SDS011;27869;51.442;7.540;2022-09-19T12:22:53;11.27;;;1.30;;
42200;SDS011;27869;51.442;7.540;2022-09-19T12:25:24;9.55;;;1.42;;
42200;SDS011;27869;51.442;7.540;2022-09-19T12:27:56;9.95;;;1.30;;
42200;SDS011;27869;51.442;7.540;2022-09-19T12:30:28;9.05;;;1.30;;
42200;SDS011;27869;51.442;7.540;2022-09-19T12:33:05;9.70;;;1.70;;
42200;SDS011;27869;51.442;7.540;2022-09-19T12:35:43;10.43;;;0.90;;
42200;SDS011;27869;51.442;7.540;2022-09-19T12:38:16;9.55;;;1.45;;
42200;SDS011;27869;51.442;7.540;2022-09-19T12:40:52;6.57;;;1.50;;
42200;SDS011;27869;51.442;7.540;2022-09-19T12:43:27;10.82;;;1.35;;
42200;SDS011;27869;51.442;7.540;2022-09-19T12:46:05;13.48;;;1.20;;
42200;SDS011;27869;51.442;7.540;2022-09-19T12:48:44;12.88;;;1.30;;
42200;SDS011;27869;51.442;7.540;2022-09-19T12:51:19;6.50;;;1.00;;
42200;SDS011;27869;51.442;7.540;2022-09-19T12:53:52;7.38;;;1.02;;
42200;SDS011;27869;51.442;7.540;2022-09-19T12:56:29;8.73;;;0.82;;
42200;SDS011;27869;51.442;7.540;2022-09-19T12:59:01;10.10;;;0.93;;
42200;SDS011;27869;51.442;7.540;2022-09-19T13:01:38;9.25;;;1.20;;
42200;SDS011;27869;51.442;7.540;2022-09-19T13:04:14;8.77;;;1.08;;
42200;SDS011;27869;51.442;7.540;2022-09-19T13:06:50;7.20;;;0.90;;
42200;SDS011;27869;51.442;7.540;2022-09-19T13:09:20;5.97;;;1.10;;
42200;SDS011;27869;51.442;7.540;2022-09-19T13:11:53;6.20;;;0.85;;
42200;SDS011;27869;51.442;7.540;2022-09-19T13:14:25;5.90;;;0.90;;
42200;SDS011;27869;51.442;7.540;2022-09-19T13:16:58;6.63;;;0.88;;
42200;SDS011;27869;51.442;7.540;2022-09-19T13:19:45;4.28;;;0.70;;
42200;SDS011;27869;51.442;7.540;2022-09-19T13:22:45;6.53;;;0.80;;
42200;SDS011;27869;51.442;7.540;2022-09-19T13:25:31;6.35;;;0.93;;
42200;SDS011;27869;51.442;7.540;2022-09-19T13:28:23;4.03;;;1.00;;
42200;SDS011;27869;51.442;7.540;2022-09-19T13:30:58;4.57;;;0.80;;
42200;SDS011;27869;51.442;7.540;2022-09-19T13:33:45;5.95;;;0.85;;
42200;SDS011;27869;51.442;7.540;2022-09-19T13:36:15;3.65;;;0.70;;
42200;SDS011;27869;51.442;7.540;2022-09-19T13:39:01;6.15;;;0.85;;
42200;SDS011;27869;51.442;7.540;2022-09-19T13:41:30;3.92;;;0.80;;
42200;SDS011;27869;51.442;7.540;2022-09-19T13:44:04;7.07;;;0.75;;
42200;SDS011;27869;51.442;7.540;2022-09-19T13:46:40;6.60;;;1.20;;
42200;SDS011;27869;51.442;7.540;2022-09-19T13:49:15;6.70;;;1.00;;
42200;SDS011;27869;51.442;7.540;2022-09-19T13:51:51;7.20;;;1.02;;
42200;SDS011;27869;51.442;7.540;2022-09-19T13:54:35;7.72;;;0.70;;
42200;SDS011;27869;51.442;7.540;2022-09-19T13:57:23;10.07;;;0.90;;
42200;SDS011;27869;51.442;7.540;2022-09-19T13:59:55;6.60;;;1.00;;
42200;SDS011;27869;51.442;7.540;2022-09-19T14:02:24;3.95;;;0.80;;
42200;SDS011;27869;51.442;7.540;2022-09-19T14:04:57;7.20;;;1.13;;
42200;SDS011;27869;51.442;7.540;2022-09-19T14:07:33;7.57;;;1.30;;
42200;SDS011;27869;51.442;7.540;2022-09-19T14:10:05;7.25;;;1.13;;
42200;SDS011;27869;51.442;7.540;2022-09-19T14:12:59;6.68;;;0.60;;
42200;SDS011;27869;51.442;7.540;2022-09-19T14:27:28;3.75;;;0.70;;
42200;SDS011;27869;51.442;7.540;2022-09-19T14:30:05;3.42;;;0.52;;
42200;SDS011;27869;51.442;7.540;2022-09-19T14:32:51;1.13;;;0.50;;
42200;SDS011;27869;51.442;7.540;2022-09-19T14:35:33;4.90;;;0.60;;
42200;SDS011;27869;51.442;7.540;2022-09-19T14:38:19;4.47;;;1.00;;
42200;SDS011;27869;51.442;7.540;2022-09-19T14:41:01;5.18;;;0.88;;
42200;SDS011;27869;51.442;7.540;2022-09-19T14:46:27;3.55;;;0.75;;
42200;SDS011;27869;51.442;7.540;2022-09-19T14:49:04;8.07;;;0.80;;
42200;SDS011;27869;51.442;7.540;2022-09-19T14:51:39;5.85;;;0.75;;
42200;SDS011;27869;51.442;7.540;2022-09-19T14:54:12;5.13;;;0.85;;
42200;SDS011;27869;51.442;7.540;2022-09-19T14:59:31;4.85;;;1.00;;
42200;SDS011;27869;51.442;7.540;2022-09-19T15:02:11;5.90;;;0.80;;
42200;SDS011;27869;51.442;7.540;2022-09-19T15:04:46;5.30;;;1.75;;
42200;SDS011;27869;51.442;7.540;2022-09-19T15:07:16;6.88;;;0.98;;
42200;SDS011;27869;51.442;7.540;2022-09-19T15:09:44;5.20;;;1.20;;
42200;SDS011;27869;51.442;7.540;2022-09-19T15:12:11;9.93;;;1.90;;
42200;SDS011;27869;51.442;7.540;2022-09-19T15:14:41;6.28;;;1.15;;
42200;SDS011;27869;51.442;7.540;2022-09-19T15:17:12;8.38;;;1.20;;
42200;SDS011;27869;51.442;7.540;2022-09-19T15:19:42;5.88;;;1.00;;
42200;SDS011;27869;51.442;7.540;2022-09-19T15:22:23;2.88;;;0.68;;
42200;SDS011;27869;51.442;7.540;2022-09-19T15:24:54;8.30;;;0.98;;
42200;SDS011;27869;51.442;7.540;2022-09-19T15:27:23;3.90;;;0.70;;
42200;SDS011;27869;51.442;7.540;2022-09-19T15:29:52;6.80;;;1.08;;
42200;SDS011;27869;51.442;7.540;2022-09-19T15:32:21;6.10;;;1.05;;
42200;SDS011;27869;51.442;7.540;2022-09-19T15:35:01;6.32;;;0.90;;
42200;SDS011;27869;51.442;7.540;2022-09-19T15:37:34;3.72;;;0.70;;
42200;SDS011;27869;51.442;7.540;2022-09-19T15:40:04;5.03;;;0.70;;
42200;SDS011;27869;51.442;7.540;2022-09-19T15:42:33;5.88;;;1.30;;
42200;SDS011;27869;51.442;7.540;2022-09-19T15:45:02;4.30;;;1.15;;
42200;SDS011;27869;51.442;7.540;2022-09-19T15:47:56;5.15;;;1.00;;
42200;SDS011;27869;51.442;7.540;2022-09-19T15:50:27;6.97;;;1.48;;
42200;SDS011;27869;51.442;7.540;2022-09-19T15:52:59;8.20;;;1.63;;
42200;SDS011;27869;51.442;7.540;2022-09-19T15:55:26;8.55;;;1.50;;
42200;SDS011;27869;51.442;7.540;2022-09-19T15:57:58;7.30;;;1.73;;